Time;durP1;ratioP1;P1;durP2;ratioP2;P2;SDS_P1;SDS_P2;PMS_P1;PMS_P2;Temp;Humidity;BMP_temperature;BMP_pressure;BME280_temperature;BME280_humidity;BME280_pressure;Samples;Min_cycle;Max_cycle;Signal;HPM_P1;HPM_P2
2021/06/05 00:01:21;;;;;;;6.43;5.78;;;17.40;99.90;;;;;;5005949;28;20185;-68
2021/06/05 00:03:49;;;;;;;6.80;5.80;;;17.30;99.90;;;;;;5006978;28;20175;-67
2021/06/05 00:06:17;;;;;;;6.55;5.95;;;17.30;99.90;;;;;;5005484;28;20275;-68
2021/06/05 00:08:43;;;;;;;6.40;5.80;;;17.40;99.90;;;;;;5006321;28;20195;-68
2021/06/05 00:11:09;;;;;;;6.45;5.88;;;17.40;99.90;;;;;;5005216;28;20176;-67
2021/06/05 00:13:44;;;;;;;7.03;6.32;;;17.50;99.90;;;;;;5005643;28;20646;-68
2021/06/05 00:16:15;;;;;;;6.18;5.60;;;17.60;99.90;;;;;;5006239;28;20290;-67
2021/06/05 00:18:42;;;;;;;6.30;5.70;;;17.60;99.90;;;;;;5006338;28;20663;-68
2021/06/05 00:21:08;;;;;;;6.80;5.75;;;17.60;99.90;;;;;;5005401;28;20179;-69
2021/06/05 00:23:34;;;;;;;8.55;6.20;;;17.60;99.90;;;;;;5006595;28;20186;-68
2021/06/05 00:25:59;;;;;;;8.88;6.78;;;17.60;99.90;;;;;;5006194;28;20262;-68
2021/06/05 00:28:26;;;;;;;6.63;5.93;;;17.60;99.90;;;;;;5006897;28;20724;-67
2021/06/05 00:30:52;;;;;;;6.45;5.85;;;17.60;99.90;;;;;;5005533;28;20191;-68
2021/06/05 00:33:18;;;;;;;6.03;5.43;;;17.60;99.90;;;;;;5006506;28;20183;-70
2021/06/05 00:35:44;;;;;;;6.38;5.78;;;17.60;99.90;;;;;;5005787;28;20184;-67
2021/06/05 00:38:10;;;;;;;8.85;7.45;;;17.60;99.90;;;;;;5006091;28;20545;-68
2021/06/05 00:40:40;;;;;;;7.65;6.55;;;17.50;99.90;;;;;;5005864;28;20274;-69
2021/06/05 00:43:08;;;;;;;7.97;6.20;;;17.50;99.90;;;;;;5005863;28;20211;-70
2021/06/05 00:45:36;;;;;;;8.02;6.40;;;17.50;99.90;;;;;;5005744;28;20203;-70
2021/06/05 00:48:03;;;;;;;8.55;5.75;;;17.50;99.90;;;;;;5005955;28;20194;-68
2021/06/05 00:50:29;;;;;;;6.75;6.05;;;17.60;99.90;;;;;;5005582;28;20183;-70
2021/06/05 00:52:56;;;;;;;7.13;5.93;;;17.50;99.90;;;;;;5005126;28;20188;-71
2021/06/05 00:55:25;;;;;;;8.43;6.85;;;17.50;99.90;;;;;;5005718;28;20223;-67
2021/06/05 00:57:51;;;;;;;6.70;6.00;;;17.40;99.90;;;;;;5006253;28;20179;-70
2021/06/05 01:00:34;;;;;;;6.88;6.18;;;17.40;99.90;;;;;;5005163;28;20207;-67
2021/06/05 01:03:01;;;;;;;7.10;6.40;;;17.60;99.90;;;;;;5005116;28;20236;-70
2021/06/05 01:05:28;;;;;;;7.20;6.43;;;17.60;99.90;;;;;;5005382;28;20270;-67
2021/06/05 01:08:09;;;;;;;7.50;6.68;;;17.50;99.90;;;;;;5005904;28;20457;-69
2021/06/05 01:10:36;;;;;;;7.25;6.55;;;17.50;99.90;;;;;;5020181;28;20740;-69
2021/06/05 01:13:13;;;;;;;9.20;7.07;;;17.50;99.90;;;;;;5020258;28;20543;-68
2021/06/05 01:15:49;;;;;;;8.52;6.45;;;17.50;99.90;;;;;;5005233;28;20183;-67
2021/06/05 01:18:27;;;;;;;6.90;6.20;;;17.50;99.90;;;;;;5005280;28;20206;-67
2021/06/05 01:21:16;;;;;;;7.00;6.25;;;17.50;99.90;;;;;;5004589;28;20175;-69
2021/06/05 01:23:54;;;;;;;6.90;6.28;;;17.50;99.90;;;;;;5004247;28;20228;-68
2021/06/05 01:26:34;;;;;;;7.22;6.53;;;17.40;99.90;;;;;;5004867;28;20235;-67
2021/06/05 01:29:08;;;;;;;9.05;6.47;;;17.50;99.90;;;;;;5004735;28;20202;-69
2021/06/05 01:31:56;;;;;;;7.03;5.97;;;17.40;99.90;;;;;;5004624;28;20639;-68
2021/06/05 01:34:26;;;;;;;6.47;5.85;;;17.40;99.90;;;;;;5005042;28;20647;-68
2021/06/05 01:36:54;;;;;;;7.78;6.20;;;17.30;99.90;;;;;;5005223;28;20663;-68
2021/06/05 01:39:26;;;;;;;7.18;6.35;;;17.30;99.90;;;;;;5004681;28;20231;-70
2021/06/05 01:41:53;;;;;;;8.32;6.22;;;17.20;99.90;;;;;;5004057;28;20202;-69
2021/06/05 01:44:20;;;;;;;6.85;6.00;;;17.20;99.90;;;;;;5004657;28;20207;-69
2021/06/05 01:46:48;;;;;;;6.57;5.88;;;17.20;99.90;;;;;;5004605;28;20191;-68
2021/06/05 01:49:15;;;;;;;6.90;6.28;;;17.10;99.90;;;;;;5019756;28;20290;-70
2021/06/05 01:51:46;;;;;;;7.53;6.45;;;17.10;99.90;;;;;;5003958;28;20182;-69
2021/06/05 01:54:39;;;;;;;6.72;6.03;;;17.10;99.90;;;;;;5004646;28;20598;-69
2021/06/05 01:57:08;;;;;;;6.82;6.13;;;17.10;99.90;;;;;;5004355;28;20190;-69
2021/06/05 01:59:34;;;;;;;6.80;6.10;;;17.10;99.90;;;;;;5004708;28;20686;-68
2021/06/05 02:02:03;;;;;;;6.55;5.90;;;17.00;99.90;;;;;;5003817;28;20218;-70
2021/06/05 02:04:28;;;;;;;6.40;5.60;;;17.10;99.90;;;;;;5004463;28;20313;-70
2021/06/05 02:06:55;;;;;;;10.27;6.35;;;17.00;99.90;;;;;;5004715;28;20259;-69
2021/06/05 02:09:24;;;;;;;7.60;6.75;;;17.10;99.90;;;;;;5004241;28;20349;-70
2021/06/05 02:11:56;;;;;;;7.28;6.13;;;17.10;99.90;;;;;;5003883;28;21337;-70
2021/06/05 02:14:35;;;;;;;6.28;5.68;;;17.10;99.90;;;;;;5004640;28;20210;-70
2021/06/05 02:17:03;;;;;;;7.72;6.70;;;17.00;99.90;;;;;;5003251;28;20183;-70
2021/06/05 02:19:45;;;;;;;6.95;6.25;;;16.90;99.90;;;;;;5004127;28;20214;-70
2021/06/05 02:22:15;;;;;;;7.13;6.43;;;16.90;99.90;;;;;;5003459;28;20258;-69
2021/06/05 02:24:45;;;;;;;7.15;6.45;;;16.90;99.90;;;;;;5004666;28;20179;-71
2021/06/05 02:27:14;;;;;;;8.23;7.43;;;16.90;99.90;;;;;;5004543;28;20287;-70
2021/06/05 02:29:44;;;;;;;7.28;6.30;;;16.90;99.90;;;;;;5004333;28;20299;-70
2021/06/05 02:32:12;;;;;;;6.68;5.97;;;16.80;99.90;;;;;;5003655;28;20222;-69
2021/06/05 02:34:39;;;;;;;7.57;6.75;;;16.70;99.90;;;;;;5005142;28;20191;-70
2021/06/05 02:37:09;;;;;;;7.25;6.53;;;16.70;99.90;;;;;;5007218;28;20187;-70
2021/06/05 02:39:35;;;;;;;6.78;6.10;;;16.60;99.90;;;;;;5008309;28;20234;-69
2021/06/05 02:42:06;;;;;;;10.85;8.93;;;16.60;99.90;;;;;;5007506;28;20207;-70
2021/06/05 02:44:33;;;;;;;8.95;7.40;;;16.50;99.90;;;;;;5008621;28;20184;-71
2021/06/05 02:47:05;;;;;;;7.13;6.43;;;16.40;99.90;;;;;;5007697;28;20199;-69
2021/06/05 02:49:34;;;;;;;8.10;7.25;;;16.30;99.90;;;;;;5007858;28;20222;-69
2021/06/05 02:52:32;;;;;;;7.70;6.10;;;16.40;99.90;;;;;;5007755;28;20236;-71
2021/06/05 02:55:03;;;;;;;7.38;6.30;;;16.30;99.90;;;;;;5007880;28;20270;-69
2021/06/05 02:57:30;;;;;;;7.00;6.28;;;16.30;99.90;;;;;;5007597;28;20190;-69
2021/06/05 02:59:56;;;;;;;10.73;6.88;;;16.40;99.90;;;;;;5007617;28;21053;-70
2021/06/05 03:02:22;;;;;;;7.85;6.70;;;16.40;99.90;;;;;;5007501;28;20666;-70
2021/06/05 03:04:48;;;;;;;7.53;6.70;;;16.30;99.90;;;;;;5007472;28;20187;-70
2021/06/05 03:07:14;;;;;;;7.15;6.45;;;16.30;99.90;;;;;;5007934;28;20638;-70
2021/06/05 03:09:40;;;;;;;7.72;6.90;;;16.30;99.90;;;;;;5007933;28;20293;-69
2021/06/05 03:12:08;;;;;;;7.75;6.93;;;16.30;99.90;;;;;;5007145;28;20245;-70
2021/06/05 03:14:36;;;;;;;8.65;7.07;;;16.20;99.90;;;;;;5008279;28;20253;-69
2021/06/05 03:17:03;;;;;;;7.85;7.05;;;16.30;99.90;;;;;;5008419;28;20194;-70
2021/06/05 03:19:28;;;;;;;8.35;7.15;;;16.30;99.90;;;;;;5008222;28;20207;-69
2021/06/05 03:21:54;;;;;;;8.27;7.05;;;16.40;99.90;;;;;;5007400;28;20290;-70
2021/06/05 03:24:20;;;;;;;8.02;6.75;;;16.30;99.90;;;;;;5007138;28;20176;-69
2021/06/05 03:26:45;;;;;;;11.52;6.47;;;16.20;99.90;;;;;;5006914;28;20695;-69
2021/06/05 03:29:11;;;;;;;7.45;6.60;;;16.20;99.90;;;;;;5006753;28;20258;-69
2021/06/05 03:31:38;;;;;;;7.07;6.38;;;16.20;99.90;;;;;;5006533;28;20192;-69
2021/06/05 03:34:04;;;;;;;7.60;6.80;;;16.20;99.90;;;;;;5007319;28;20325;-69
2021/06/05 03:36:30;;;;;;;6.68;5.97;;;16.30;99.90;;;;;;5006650;28;20549;-69
2021/06/05 03:38:56;;;;;;;7.68;6.47;;;16.20;99.90;;;;;;5007043;28;20203;-69
2021/06/05 03:41:21;;;;;;;8.38;6.75;;;16.30;99.90;;;;;;5005815;28;20207;-69
2021/06/05 03:43:47;;;;;;;8.50;7.25;;;16.30;99.90;;;;;;5007073;28;20244;-69
2021/06/05 03:46:13;;;;;;;7.05;6.22;;;16.30;99.90;;;;;;5005261;28;20187;-69
2021/06/05 03:48:39;;;;;;;6.85;6.10;;;16.40;99.90;;;;;;5006775;28;20704;-69
2021/06/05 03:51:06;;;;;;;7.25;6.45;;;16.50;99.90;;;;;;5005811;28;20183;-69
2021/06/05 03:53:32;;;;;;;7.85;6.88;;;16.60;99.90;;;;;;5006581;28;20184;-70
2021/06/05 03:55:58;;;;;;;7.45;6.70;;;16.70;99.90;;;;;;5006240;28;20218;-69
2021/06/05 03:58:39;;;;;;;7.72;6.93;;;16.80;99.90;;;;;;5006581;28;20219;-70
2021/06/05 04:01:14;;;;;;;6.93;6.25;;;16.90;99.90;;;;;;5005454;28;20172;-69
2021/06/05 04:03:40;;;;;;;7.85;7.05;;;17.10;99.90;;;;;;5007002;28;20815;-70
2021/06/05 04:06:07;;;;;;;11.00;8.07;;;17.20;99.90;;;;;;5004627;28;20214;-69
2021/06/05 04:08:33;;;;;;;8.15;6.90;;;17.30;99.90;;;;;;5006179;28;20841;-69
2021/06/05 04:10:58;;;;;;;12.10;7.63;;;17.50;99.90;;;;;;5005683;28;20198;-70
2021/06/05 04:13:24;;;;;;;7.93;6.32;;;17.50;99.90;;;;;;5006151;28;20657;-69
2021/06/05 04:15:50;;;;;;;7.18;5.80;;;17.60;99.90;;;;;;5006011;28;20183;-70
2021/06/05 04:18:30;;;;;;;7.35;6.50;;;17.60;99.90;;;;;;5006638;28;20203;-69
2021/06/05 04:20:57;;;;;;;7.30;6.60;;;17.60;99.90;;;;;;5005167;28;20179;-69
2021/06/05 04:23:23;;;;;;;7.75;7.00;;;17.60;99.90;;;;;;5004176;28;20264;-69
2021/06/05 04:25:49;;;;;;;7.40;6.70;;;17.60;99.90;;;;;;5005821;28;20226;-70
2021/06/05 04:28:18;;;;;;;8.15;7.18;;;17.70;99.90;;;;;;5020844;28;20250;-69
2021/06/05 04:30:45;;;;;;;8.15;7.35;;;18.00;99.90;;;;;;5005029;28;20176;-69
2021/06/05 04:33:13;;;;;;;8.25;7.45;;;18.40;99.90;;;;;;5021123;28;20207;-70
2021/06/05 04:35:39;;;;;;;7.85;7.05;;;18.90;99.90;;;;;;5005682;28;20183;-70
2021/06/05 04:38:06;;;;;;;7.55;6.43;;;19.40;99.90;;;;;;5005640;28;20263;-70
2021/06/05 04:40:32;;;;;;;7.90;7.00;;;20.20;99.90;;;;;;5005520;28;20188;-70
2021/06/05 04:42:58;;;;;;;7.53;6.82;;;20.60;99.90;;;;;;5005360;28;20211;-70
2021/06/05 04:45:24;;;;;;;7.10;6.40;;;20.80;99.90;;;;;;5005241;28;20260;-67
2021/06/05 04:47:50;;;;;;;7.28;6.50;;;20.90;99.90;;;;;;5005592;28;20661;-67
2021/06/05 04:50:24;;;;;;;8.55;7.68;;;20.90;99.90;;;;;;5004950;28;20225;-70
2021/06/05 04:52:51;;;;;;;7.50;6.70;;;20.80;99.90;;;;;;5005101;28;20175;-68
2021/06/05 04:55:17;;;;;;;7.28;6.57;;;20.90;99.90;;;;;;5005139;28;20183;-68
2021/06/05 04:57:42;;;;;;;7.10;6.47;;;20.90;99.90;;;;;;5005369;28;20188;-70
2021/06/05 05:00:12;;;;;;;7.45;6.60;;;20.70;99.90;;;;;;5004739;28;20674;-68
2021/06/05 05:02:38;;;;;;;7.18;6.47;;;20.50;99.90;;;;;;5004966;28;20214;-66
2021/06/05 05:05:05;;;;;;;7.55;6.82;;;20.50;99.90;;;;;;5005134;28;20188;-70
2021/06/05 05:07:31;;;;;;;9.27;7.63;;;20.50;99.90;;;;;;5005308;28;20188;-70
2021/06/05 05:09:56;;;;;;;7.95;7.13;;;20.10;99.90;;;;;;5004880;28;20619;-70
2021/06/05 05:12:22;;;;;;;8.05;7.20;;;19.90;99.90;;;;;;5004970;28;20271;-69
2021/06/05 05:14:48;;;;;;;8.30;7.38;;;19.70;99.90;;;;;;5004633;28;20234;-69
2021/06/05 05:17:13;;;;;;;8.43;7.60;;;19.60;99.90;;;;;;5005061;28;20941;-69
2021/06/05 05:19:39;;;;;;;9.55;7.88;;;19.50;99.90;;;;;;5004742;28;20207;-70
2021/06/05 05:22:06;;;;;;;8.90;8.00;;;19.60;99.90;;;;;;5004548;28;20518;-69
2021/06/05 05:24:32;;;;;;;9.68;7.10;;;19.60;99.90;;;;;;5005089;28;20714;-69
2021/06/05 05:26:58;;;;;;;8.15;6.55;;;19.70;99.90;;;;;;5005180;28;20466;-69
2021/06/05 05:29:23;;;;;;;8.35;7.50;;;20.00;99.90;;;;;;5000026;28;20325;-69
2021/06/05 05:31:49;;;;;;;8.68;7.18;;;20.10;99.90;;;;;;5003499;28;20266;-69
2021/06/05 05:34:15;;;;;;;7.88;7.07;;;20.10;99.90;;;;;;5003992;28;20552;-69
2021/06/05 05:36:41;;;;;;;7.80;7.00;;;20.10;99.90;;;;;;5004275;28;20179;-70
2021/06/05 05:39:13;;;;;;;8.82;7.93;;;20.30;99.90;;;;;;5003887;28;20217;-69
2021/06/05 05:41:40;;;;;;;9.30;7.78;;;20.50;99.90;;;;;;5003355;28;20207;-67
2021/06/05 05:44:06;;;;;;;9.57;8.15;;;20.60;99.90;;;;;;5003034;28;20187;-68
2021/06/05 05:46:33;;;;;;;8.85;7.95;;;20.50;99.90;;;;;;5004142;28;20203;-70
2021/06/05 05:48:59;;;;;;;9.05;8.15;;;20.30;99.90;;;;;;5004242;28;20357;-69
2021/06/05 05:51:26;;;;;;;8.65;7.50;;;20.30;99.90;;;;;;5003698;28;20551;-69
2021/06/05 05:53:52;;;;;;;10.00;8.50;;;20.60;99.90;;;;;;5019314;28;20599;-68
2021/06/05 05:56:21;;;;;;;9.70;8.70;;;20.70;99.90;;;;;;5004369;28;20179;-69
2021/06/05 05:58:50;;;;;;;10.93;8.40;;;20.80;99.90;;;;;;5003768;28;20601;-68
2021/06/05 06:01:19;;;;;;;9.70;8.68;;;20.70;99.90;;;;;;5003266;28;20275;-69
2021/06/05 06:03:45;;;;;;;9.57;8.63;;;20.90;99.90;;;;;;5004508;28;20206;-68
2021/06/05 06:06:11;;;;;;;10.88;8.27;;;20.90;99.90;;;;;;5003585;28;20237;-69
2021/06/05 06:08:37;;;;;;;8.57;7.78;;;21.00;99.90;;;;;;5004275;28;20212;-69
2021/06/05 06:11:04;;;;;;;10.60;8.32;;;21.10;99.90;;;;;;5009239;28;20593;-69
2021/06/05 06:13:30;;;;;;;9.75;8.75;;;21.20;99.90;;;;;;5011130;28;20179;-69
2021/06/05 06:15:55;;;;;;;9.88;8.82;;;21.10;99.90;;;;;;5010559;28;20557;-69
2021/06/05 06:18:21;;;;;;;9.05;8.15;;;20.90;99.90;;;;;;5010805;28;20265;-69
2021/06/05 06:20:52;;;;;;;10.07;9.05;;;20.80;99.90;;;;;;5010228;28;20198;-69
2021/06/05 06:23:40;;;;;;;10.23;9.23;;;20.80;99.90;;;;;;5010960;28;20686;-69
2021/06/05 06:26:10;;;;;;;9.82;8.55;;;20.70;99.90;;;;;;5010248;28;20643;-69
2021/06/05 06:28:38;;;;;;;9.00;8.10;;;20.70;99.90;;;;;;5009422;28;20553;-68
2021/06/05 06:31:04;;;;;;;9.95;8.57;;;21.00;99.90;;;;;;5009640;28;20183;-69
2021/06/05 06:33:30;;;;;;;10.02;8.90;;;21.00;99.90;;;;;;5010806;28;20187;-68
2021/06/05 06:35:57;;;;;;;11.52;9.13;;;21.00;99.90;;;;;;5010465;28;20191;-70
2021/06/05 06:38:31;;;;;;;9.98;8.85;;;21.00;99.90;;;;;;5010886;28;20515;-68
2021/06/05 06:40:58;;;;;;;10.38;8.57;;;21.20;99.90;;;;;;5004976;28;20261;-68
2021/06/05 06:43:27;;;;;;;12.43;9.23;;;21.10;99.90;;;;;;5009866;28;20269;-68
2021/06/05 06:45:53;;;;;;;11.15;9.32;;;21.20;99.90;;;;;;5008712;28;20188;-69
2021/06/05 06:48:20;;;;;;;9.80;8.80;;;21.40;99.90;;;;;;5009858;28;20195;-67
2021/06/05 06:50:45;;;;;;;9.77;8.75;;;21.60;99.90;;;;;;5022679;28;21286;-69
2021/06/05 06:53:11;;;;;;;9.10;8.00;;;21.60;99.90;;;;;;5009510;28;20184;-68
2021/06/05 06:55:37;;;;;;;10.30;8.45;;;21.80;99.90;;;;;;5008049;28;20253;-66
2021/06/05 06:58:03;;;;;;;9.48;8.57;;;22.30;99.90;;;;;;5009310;28;20359;-69
2021/06/05 07:00:34;;;;;;;9.20;8.30;;;22.30;99.90;;;;;;5009691;28;20189;-68
2021/06/05 07:02:59;;;;;;;8.90;7.88;;;22.30;99.90;;;;;;5009290;28;20230;-69
2021/06/05 07:05:25;;;;;;;9.48;8.43;;;22.50;99.90;;;;;;5008773;28;20651;-69
2021/06/05 07:07:51;;;;;;;9.52;8.30;;;22.80;99.90;;;;;;5009148;28;20179;-69
2021/06/05 07:10:21;;;;;;;8.70;7.78;;;22.80;99.90;;;;;;5009783;28;20721;-70
2021/06/05 07:12:47;;;;;;;10.90;9.75;;;23.20;99.90;;;;;;5010089;28;20191;-69
2021/06/05 07:15:13;;;;;;;9.32;8.43;;;22.90;99.90;;;;;;5010375;28;20218;-71
2021/06/05 07:17:39;;;;;;;10.40;8.98;;;23.00;99.90;;;;;;5010656;28;20638;-70
2021/06/05 07:20:06;;;;;;;9.38;8.40;;;22.90;99.90;;;;;;5009824;28;20218;-71
2021/06/05 07:22:32;;;;;;;11.13;9.27;;;23.10;99.90;;;;;;5007013;28;20219;-69
2021/06/05 07:24:58;;;;;;;10.07;9.07;;;23.10;99.90;;;;;;5006855;28;20187;-69
2021/06/05 07:27:23;;;;;;;10.18;9.02;;;22.80;99.90;;;;;;5007186;28;20194;-71
2021/06/05 07:29:49;;;;;;;10.70;9.57;;;22.30;99.90;;;;;;5006459;28;20208;-68
2021/06/05 07:32:14;;;;;;;14.68;8.93;;;22.20;99.90;;;;;;5006414;28;20191;-68
2021/06/05 07:34:40;;;;;;;9.73;8.65;;;22.30;99.90;;;;;;5006528;28;20211;-68
2021/06/05 07:37:10;;;;;;;9.45;8.45;;;22.50;99.90;;;;;;5006906;28;20184;-69
2021/06/05 07:39:36;;;;;;;9.65;8.73;;;22.70;99.90;;;;;;5006759;28;20204;-68
2021/06/05 07:42:03;;;;;;;10.57;9.13;;;22.70;99.90;;;;;;5006305;28;20218;-69
2021/06/05 07:44:33;;;;;;;10.93;9.80;;;22.60;99.90;;;;;;5006988;28;20190;-69
2021/06/05 07:47:00;;;;;;;9.07;8.13;;;22.80;99.90;;;;;;5006457;28;20590;-69
2021/06/05 07:49:35;;;;;;;10.95;9.80;;;23.10;99.90;;;;;;5006634;28;20214;-69
2021/06/05 07:52:04;;;;;;;11.18;9.98;;;23.20;99.90;;;;;;5005962;28;20214;-70
2021/06/05 07:54:29;;;;;;;10.07;9.07;;;23.20;99.90;;;;;;5006546;28;20202;-69
2021/06/05 07:56:55;;;;;;;9.77;8.77;;;23.10;99.90;;;;;;5006518;28;20262;-68
2021/06/05 07:59:24;;;;;;;9.25;8.25;;;23.00;99.90;;;;;;5005898;28;20200;-68
2021/06/05 08:01:50;;;;;;;10.18;9.18;;;23.40;99.90;;;;;;5005666;28;20215;-69
2021/06/05 08:04:17;;;;;;;11.27;9.73;;;23.70;99.90;;;;;;5006654;28;20258;-68
2021/06/05 08:06:44;;;;;;;10.93;9.23;;;23.80;99.90;;;;;;5006529;28;20171;-66
2021/06/05 08:09:10;;;;;;;10.30;9.30;;;24.00;99.90;;;;;;5005952;28;20975;-69
2021/06/05 08:11:36;;;;;;;10.70;9.40;;;24.20;99.90;;;;;;5005612;28;20206;-67
2021/06/05 08:14:02;;;;;;;10.40;9.32;;;24.40;99.90;;;;;;5004690;28;20222;-69
2021/06/05 08:16:28;;;;;;;10.75;9.25;;;24.60;99.90;;;;;;5005742;28;20228;-68
2021/06/05 08:18:54;;;;;;;11.95;10.52;;;24.60;99.90;;;;;;5005857;28;20551;-67
2021/06/05 08:21:20;;;;;;;11.48;10.32;;;24.80;99.90;;;;;;5000721;28;20752;-65
2021/06/05 08:23:47;;;;;;;10.23;9.23;;;24.50;99.90;;;;;;5004924;28;20175;-63
2021/06/05 08:26:16;;;;;;;11.73;10.07;;;24.70;99.90;;;;;;5005198;28;20258;-66
2021/06/05 08:28:42;;;;;;;11.88;10.63;;;24.80;99.90;;;;;;5004988;28;20211;-65
2021/06/05 08:31:11;;;;;;;11.38;9.88;;;25.00;99.90;;;;;;5003476;28;20201;-69
2021/06/05 08:33:37;;;;;;;10.70;9.70;;;25.10;99.90;;;;;;5005367;28;20215;-68
2021/06/05 08:36:04;;;;;;;10.52;9.43;;;25.30;99.90;;;;;;5005547;28;20521;-66
2021/06/05 08:38:30;;;;;;;10.60;9.50;;;25.30;99.90;;;;;;5005734;28;20226;-67
2021/06/05 08:41:13;;;;;;;11.15;10.02;;;25.20;99.90;;;;;;5005110;28;20990;-65
2021/06/05 08:44:02;;;;;;;11.85;10.60;;;25.00;99.90;;;;;;5005877;28;20269;-65
2021/06/05 08:46:41;;;;;;;11.05;9.90;;;24.90;99.90;;;;;;5005803;28;20301;-67
2021/06/05 08:49:21;;;;;;;10.52;9.52;;;25.00;99.90;;;;;;5005597;28;20214;-67
2021/06/05 08:51:58;;;;;;;10.63;9.43;;;25.20;99.90;;;;;;5005186;28;20191;-67
2021/06/05 08:54:51;;;;;;;9.23;8.32;;;25.10;99.90;;;;;;5005598;28;20282;-68
2021/06/05 08:57:56;;;;;;;11.13;10.02;;;25.10;99.90;;;;;;5005215;28;20973;-67
2021/06/05 09:00:27;;;;;;;9.98;8.98;;;24.90;99.90;;;;;;5005615;28;20194;-66
2021/06/05 09:02:57;;;;;;;10.30;9.05;;;24.70;99.90;;;;;;5004907;28;20203;-66
2021/06/05 09:05:30;;;;;;;11.48;10.27;;;24.50;99.90;;;;;;5005078;28;20558;-67
2021/06/05 09:07:56;;;;;;;10.48;9.43;;;24.20;99.90;;;;;;5005062;28;20245;-66
2021/06/05 09:10:23;;;;;;;11.40;9.60;;;24.00;99.90;;;;;;5004876;28;20275;-67
2021/06/05 09:12:49;;;;;;;11.02;9.93;;;24.20;99.90;;;;;;5004656;28;20223;-67
2021/06/05 09:15:29;;;;;;;10.68;9.63;;;24.30;99.90;;;;;;5004727;28;20462;-68
2021/06/05 09:17:59;;;;;;;11.13;9.88;;;24.00;99.90;;;;;;5004828;28;20179;-69
2021/06/05 09:20:39;;;;;;;11.70;10.13;;;24.00;99.90;;;;;;5004717;28;20187;-68
2021/06/05 09:23:24;;;;;;;11.07;9.80;;;24.00;99.90;;;;;;5004579;28;20793;-68
2021/06/05 09:25:50;;;;;;;9.75;8.52;;;24.40;99.90;;;;;;5004558;28;20230;-68
2021/06/05 09:28:22;;;;;;;12.20;9.88;;;24.80;99.90;;;;;;5004785;28;20200;-70
2021/06/05 09:30:51;;;;;;;12.23;10.30;;;24.80;99.90;;;;;;5012156;28;20183;-69
2021/06/05 09:33:31;;;;;;;9.80;8.80;;;24.50;99.90;;;;;;5005409;28;20396;-66
2021/06/05 09:36:17;;;;;;;9.55;8.65;;;24.90;99.90;;;;;;5004754;28;20236;-67
2021/06/05 09:38:58;;;;;;;8.88;8.02;;;25.20;99.90;;;;;;5004446;28;20203;-66
2021/06/05 09:41:40;;;;;;;8.18;7.38;;;24.90;99.90;;;;;;5003773;28;20303;-66
2021/06/05 09:44:22;;;;;;;7.97;7.20;;;24.90;99.90;;;;;;5003997;28;21230;-70
2021/06/05 09:47:05;;;;;;;8.43;7.60;;;25.00;99.90;;;;;;5004288;28;20213;-69
2021/06/05 09:49:32;;;;;;;8.13;7.32;;;24.80;99.90;;;;;;5004352;28;20307;-68
2021/06/05 09:52:03;;;;;;;8.23;7.38;;;24.90;99.90;;;;;;5003725;28;20242;-66
2021/06/05 09:54:45;;;;;;;7.82;7.03;;;25.10;99.90;;;;;;5004434;28;20254;-68
2021/06/05 09:57:29;;;;;;;8.65;7.75;;;25.50;99.90;;;;;;5010577;28;20183;-68
2021/06/05 10:00:13;;;;;;;8.65;7.47;;;26.00;99.90;;;;;;5004029;28;20200;-68
2021/06/05 10:02:42;;;;;;;9.20;8.32;;;26.30;99.90;;;;;;5003389;28;20207;-68
2021/06/05 10:05:28;;;;;;;9.20;8.27;;;26.50;99.90;;;;;;5004225;28;20176;-68
2021/06/05 10:08:18;;;;;;;9.25;8.02;;;26.30;99.90;;;;;;5004130;28;20179;-68
2021/06/05 10:10:46;;;;;;;7.75;7.05;;;26.50;99.90;;;;;;5003637;28;20657;-68
2021/06/05 10:13:19;;;;;;;8.27;6.90;;;26.50;99.90;;;;;;5004139;28;20218;-67
2021/06/05 10:15:54;;;;;;;7.32;6.05;;;26.80;99.90;;;;;;5004329;28;20612;-66
2021/06/05 10:18:56;;;;;;;7.70;6.18;;;26.90;99.90;;;;;;5019396;28;20398;-68
2021/06/05 10:21:25;;;;;;;8.18;7.10;;;27.40;99.90;;;;;;4996139;28;20222;-69
2021/06/05 10:24:01;;;;;;;7.45;6.75;;;27.50;99.90;;;;;;5004302;28;20187;-66
2021/06/05 10:26:32;;;;;;;7.03;6.30;;;27.40;99.90;;;;;;5004393;28;20225;-67
2021/06/05 10:29:07;;;;;;;7.45;6.18;;;27.20;99.90;;;;;;5004149;28;20214;-67
2021/06/05 10:31:34;;;;;;;7.18;6.47;;;27.40;99.90;;;;;;5003590;28;20233;-68
2021/06/05 10:34:06;;;;;;;6.40;5.80;;;27.90;99.90;;;;;;5001030;28;20188;-65
2021/06/05 10:36:46;;;;;;;6.88;6.18;;;28.60;99.90;;;;;;5003999;28;20215;-68
2021/06/05 10:39:15;;;;;;;6.40;5.80;;;28.50;99.90;;;;;;5003952;28;20200;-68
2021/06/05 10:41:54;;;;;;;5.80;5.30;;;28.80;99.90;;;;;;5003231;28;20207;-68
2021/06/05 10:44:20;;;;;;;6.40;5.80;;;28.20;99.90;;;;;;5004007;28;20259;-68
2021/06/05 10:47:17;;;;;;;5.45;4.97;;;28.50;99.90;;;;;;5003403;28;20202;-67
2021/06/05 10:50:05;;;;;;;4.65;4.28;;;28.60;99.90;;;;;;5004998;28;20246;-68
2021/06/05 10:52:33;;;;;;;4.90;4.47;;;28.40;99.90;;;;;;5002245;28;20527;-68
2021/06/05 10:55:25;;;;;;;4.80;4.40;;;28.60;99.90;;;;;;5004053;28;20191;-68
2021/06/05 10:58:16;;;;;;;5.10;4.68;;;28.90;99.90;;;;;;5007546;28;20184;-67
2021/06/05 11:00:42;;;;;;;6.72;4.82;;;28.90;99.90;;;;;;4987527;28;20576;-66
2021/06/05 11:03:30;;;;;;;5.70;5.20;;;28.70;99.90;;;;;;5007636;28;20207;-66
2021/06/05 11:06:16;;;;;;;5.82;5.35;;;28.20;99.90;;;;;;5006799;28;20584;-67
2021/06/05 11:08:54;;;;;;;5.38;4.97;;;27.50;99.90;;;;;;5007621;28;20203;-67
2021/06/05 11:11:34;;;;;;;4.72;4.32;;;27.30;99.90;;;;;;5006368;28;20415;-68
2021/06/05 11:14:09;;;;;;;5.63;5.15;;;27.20;99.90;;;;;;5007181;28;20183;-66
2021/06/05 11:16:57;;;;;;;5.22;4.72;;;27.10;99.90;;;;;;5006808;28;20619;-66
2021/06/05 11:19:43;;;;;;;6.00;5.22;;;27.00;99.90;;;;;;5007084;28;20203;-67
2021/06/05 11:22:14;;;;;;;6.43;5.82;;;27.00;99.90;;;;;;5006180;28;20563;-68
2021/06/05 11:24:44;;;;;;;5.35;4.85;;;27.00;99.90;;;;;;5007409;28;20191;-68
2021/06/05 11:27:39;;;;;;;5.95;5.45;;;27.00;99.90;;;;;;5005050;28;20278;-67
2021/06/05 11:30:28;;;;;;;5.90;5.40;;;27.10;99.90;;;;;;5014829;28;20211;-67
2021/06/05 11:33:08;;;;;;;5.57;5.07;;;26.90;99.90;;;;;;5005924;28;20270;-66
2021/06/05 11:35:59;;;;;;;6.53;5.93;;;26.90;99.90;;;;;;5006611;28;20183;-66
2021/06/05 11:38:25;;;;;;;6.03;5.50;;;26.90;99.90;;;;;;5021453;28;20610;-68
2021/06/05 11:41:04;;;;;;;6.20;5.60;;;27.00;99.90;;;;;;5006004;28;20648;-68
2021/06/05 11:43:30;;;;;;;6.63;6.03;;;27.00;99.90;;;;;;5007164;28;20231;-66
2021/06/05 11:45:58;;;;;;;6.65;6.05;;;26.90;99.90;;;;;;5006661;28;20242;-67
2021/06/05 11:48:36;;;;;;;7.50;6.80;;;26.80;99.90;;;;;;5006462;28;20192;-68
2021/06/05 11:51:20;;;;;;;6.35;5.72;;;26.80;99.90;;;;;;5005759;28;20175;-67
2021/06/05 11:53:48;;;;;;;7.07;6.45;;;26.90;99.90;;;;;;5021418;28;20686;-68
2021/06/05 11:56:25;;;;;;;7.40;6.70;;;26.80;99.90;;;;;;5006394;28;20184;-67
2021/06/05 11:58:51;;;;;;;6.80;6.15;;;26.70;99.90;;;;;;5005921;28;20435;-68
2021/06/05 12:01:27;;;;;;;8.18;7.38;;;26.60;99.90;;;;;;5004220;28;20188;-66
2021/06/05 12:03:55;;;;;;;7.78;7.00;;;26.50;99.90;;;;;;5005767;28;20189;-68
2021/06/05 12:06:27;;;;;;;8.00;7.20;;;26.40;99.90;;;;;;5006071;28;20191;-66
2021/06/05 12:09:08;;;;;;;8.55;7.75;;;26.40;99.90;;;;;;5004780;28;20195;-65
2021/06/05 12:11:44;;;;;;;8.18;7.38;;;26.00;99.90;;;;;;5005466;28;20556;-71
2021/06/05 12:14:15;;;;;;;7.53;6.70;;;25.80;99.90;;;;;;5021749;28;20633;-66
2021/06/05 12:16:54;;;;;;;6.43;5.80;;;25.50;99.90;;;;;;5005797;28;20186;-67
2021/06/05 12:19:26;;;;;;;5.85;5.10;;;25.20;99.90;;;;;;5005867;28;20203;-69
2021/06/05 12:21:51;;;;;;;7.45;5.35;;;25.10;99.90;;;;;;5005282;28;20302;-69
2021/06/05 12:24:22;;;;;;;5.60;5.05;;;25.00;99.90;;;;;;5006306;28;21065;-67
2021/06/05 12:27:01;;;;;;;5.35;4.85;;;24.90;99.90;;;;;;5005870;28;20249;-69
2021/06/05 12:29:39;;;;;;;5.47;4.95;;;24.70;99.90;;;;;;5006133;28;20199;-70
2021/06/05 12:32:29;;;;;;;5.70;5.10;;;24.50;99.90;;;;;;5005559;28;20654;-70
2021/06/05 12:34:55;;;;;;;5.22;4.72;;;24.30;99.90;;;;;;5006823;28;20194;-70
2021/06/05 12:37:25;;;;;;;5.93;4.60;;;23.90;99.90;;;;;;5005338;28;20188;-65
2021/06/05 12:40:01;;;;;;;5.35;4.85;;;23.70;99.90;;;;;;5020829;28;20562;-67
2021/06/05 12:42:33;;;;;;;5.25;4.70;;;23.50;99.90;;;;;;5004632;28;20211;-67
2021/06/05 12:45:07;;;;;;;4.80;4.03;;;23.30;99.90;;;;;;5004879;28;20175;-67
2021/06/05 12:47:36;;;;;;;5.13;3.60;;;23.10;99.90;;;;;;5004374;28;20267;-68
2021/06/05 12:50:06;;;;;;;4.70;4.07;;;22.90;99.90;;;;;;5005455;28;20223;-69
2021/06/05 12:52:33;;;;;;;4.53;3.50;;;22.70;99.90;;;;;;5005514;28;20647;-68
2021/06/05 12:55:11;;;;;;;5.32;4.15;;;22.50;99.90;;;;;;5020821;28;20194;-66
2021/06/05 12:57:52;;;;;;;4.70;4.03;;;22.30;99.90;;;;;;5005064;28;20195;-66
2021/06/05 13:00:30;;;;;;;6.45;4.95;;;22.10;99.90;;;;;;5005551;28;20256;-67
2021/06/05 13:03:07;;;;;;;6.93;5.28;;;22.00;99.90;;;;;;5004615;28;20659;-67
2021/06/05 13:05:36;;;;;;;5.43;4.75;;;21.80;99.90;;;;;;5005618;28;20249;-66